Time;durP1;ratioP1;P1;durP2;ratioP2;P2;SDS_P1;SDS_P2;PMS_P1;PMS_P2;Temp;Humidity;BMP_temperature;BMP_pressure;BME280_temperature;BME280_humidity;BME280_pressure;Samples;Min_cycle;Max_cycle;Signal;HPM_P1;HPM_P2
2023/08/29 00:00:40;;;;;;;1.50;1.40;;;;;;;12.14;100.00;96097.25;5112608;28;20197;-65
2023/08/29 00:03:06;;;;;;;2.13;2.03;;;;;;;12.26;100.00;96103.88;5112263;28;20288;-64
2023/08/29 00:05:34;;;;;;;2.20;2.10;;;;;;;12.30;100.00;96105.19;5112034;28;20595;-65
2023/08/29 00:08:01;;;;;;;2.20;2.10;;;;;;;12.27;100.00;96102.88;5112750;28;20213;-65
2023/08/29 00:10:27;;;;;;;2.70;2.50;;;;;;;12.16;100.00;96089.94;5112299;28;20189;-65
2023/08/29 00:12:54;;;;;;;1.93;1.83;;;;;;;12.16;100.00;96098.75;5112251;28;20297;-63
2023/08/29 00:15:20;;;;;;;2.03;1.90;;;;;;;12.12;100.00;96096.56;5112617;28;20193;-65
2023/08/29 00:17:48;;;;;;;2.20;1.97;;;;;;;12.10;100.00;96106.53;5111552;28;20236;-63
2023/08/29 00:20:14;;;;;;;2.10;2.00;;;;;;;12.07;100.00;96101.56;5111335;28;20212;-63
2023/08/29 00:22:42;;;;;;;2.17;1.97;;;;;;;12.10;100.00;96096.75;5112420;28;20209;-63
2023/08/29 00:25:09;;;;;;;2.20;2.10;;;;;;;12.10;100.00;96095.94;5112911;28;20202;-62
2023/08/29 00:27:35;;;;;;;2.07;1.97;;;;;;;12.08;100.00;96100.56;5113157;28;20229;-62
2023/08/29 00:30:01;;;;;;;2.07;1.87;;;;;;;12.02;100.00;96098.56;5113007;28;20213;-65
2023/08/29 00:32:28;;;;;;;2.20;2.10;;;;;;;12.06;100.00;96100.72;5127458;28;20216;-63
2023/08/29 00:34:54;;;;;;;2.00;1.90;;;;;;;12.08;100.00;96100.56;5129175;28;20205;-63
2023/08/29 00:37:21;;;;;;;1.87;1.77;;;;;;;12.10;100.00;96099.41;5122226;28;20205;-63
2023/08/29 00:39:49;;;;;;;2.00;1.90;;;;;;;12.11;100.00;96095.78;5115280;28;20209;-66
2023/08/29 00:42:17;;;;;;;2.30;2.20;;;;;;;12.13;100.00;96095.59;5097619;28;20200;-65
2023/08/29 00:44:43;;;;;;;2.00;1.90;;;;;;;12.09;100.00;96100.41;5114328;28;20205;-63
2023/08/29 00:47:10;;;;;;;1.73;1.63;;;;;;;12.13;100.00;96093.78;5114621;28;20216;-65
2023/08/29 00:49:37;;;;;;;2.33;1.67;;;;;;;12.11;100.00;96097.59;5113866;28;20636;-63
2023/08/29 00:52:05;;;;;;;1.90;1.80;;;;;;;12.17;100.00;96097.75;5113455;28;20645;-63
2023/08/29 00:54:32;;;;;;;2.10;1.97;;;;;;;12.20;100.00;96088.63;5115597;28;20221;-65
2023/08/29 00:57:00;;;;;;;2.47;1.80;;;;;;;12.19;100.00;96093.09;5113758;28;20235;-63
2023/08/29 00:59:29;;;;;;;1.83;1.73;;;;;;;12.15;100.00;96090.97;5114038;28;20689;-64
2023/08/29 01:01:56;;;;;;;2.07;1.97;;;;;;;12.16;100.00;96082.84;5116011;28;20197;-63
2023/08/29 01:04:22;;;;;;;2.90;1.80;;;;;;;12.13;100.00;96085.00;5115061;28;20193;-66
2023/08/29 01:06:49;;;;;;;2.13;2.03;;;;;;;12.15;100.00;96090.97;5115454;28;20209;-65
2023/08/29 01:09:15;;;;;;;2.00;1.90;;;;;;;12.12;100.00;96088.63;5111429;28;20522;-63
2023/08/29 01:11:46;;;;;;;1.93;1.83;;;;;;;12.09;100.00;96089.78;5111958;28;20567;-63
2023/08/29 01:14:21;;;;;;;2.03;1.93;;;;;;;12.10;100.00;96087.97;5093854;28;20566;-65
2023/08/29 01:16:51;;;;;;;2.10;2.00;;;;;;;12.19;100.00;96089.63;5112480;28;20189;-64
2023/08/29 01:19:22;;;;;;;2.10;2.00;;;;;;;12.28;100.00;96093.94;5112085;28;20217;-63
2023/08/29 01:21:55;;;;;;;2.10;2.00;;;;;;;12.29;100.00;96083.16;5111915;28;20708;-64
2023/08/29 01:24:26;;;;;;;2.17;2.07;;;;;;;12.29;100.00;96082.34;5112149;28;20212;-63
2023/08/29 01:26:54;;;;;;;1.90;1.80;;;;;;;12.30;100.00;96076.03;5110759;28;20244;-63
2023/08/29 01:29:21;;;;;;;1.80;1.70;;;;;;;12.25;100.00;96078.38;5110771;28;20193;-63
2023/08/29 01:31:49;;;;;;;2.13;2.00;;;;;;;12.19;100.00;96079.84;5111004;28;20205;-65
2023/08/29 01:34:16;;;;;;;2.20;2.10;;;;;;;12.24;100.00;96082.00;5111085;28;20248;-62
2023/08/29 01:36:43;;;;;;;1.87;1.80;;;;;;;12.18;100.00;96078.22;5110958;28;20204;-64
2023/08/29 01:39:10;;;;;;;2.10;1.97;;;;;;;12.24;100.00;96080.19;5110981;28;20225;-64
2023/08/29 01:41:37;;;;;;;2.10;1.93;;;;;;;12.37;100.00;96077.00;5111564;28;20200;-64
2023/08/29 01:44:06;;;;;;;2.37;2.17;;;;;;;12.32;100.00;96082.00;5111104;28;20537;-63
2023/08/29 01:46:32;;;;;;;2.30;2.20;;;;;;;12.37;100.00;96084.97;5111186;28;20209;-62
2023/08/29 01:49:01;;;;;;;2.33;2.23;;;;;;;12.33;100.00;96087.13;5111028;28;20214;-62
2023/08/29 01:51:27;;;;;;;2.07;1.97;;;;;;;12.36;100.00;96083.34;5110465;28;20201;-64
2023/08/29 01:53:54;;;;;;;2.30;2.20;;;;;;;12.37;100.00;96082.31;5110842;28;20216;-64
2023/08/29 01:56:22;;;;;;;2.33;2.13;;;;;;;12.34;100.00;96078.19;5110250;28;20212;-63
2023/08/29 01:58:51;;;;;;;2.37;2.27;;;;;;;12.35;100.00;96079.03;5110229;28;20692;-64
2023/08/29 02:01:22;;;;;;;2.20;2.10;;;;;;;12.29;100.00;96080.50;5111022;28;20247;-66
2023/08/29 02:03:49;;;;;;;2.93;2.43;;;;;;;12.30;100.00;96068.06;5112626;28;20228;-65
2023/08/29 02:06:15;;;;;;;2.60;2.40;;;;;;;12.28;100.00;96083.34;5114278;28;20203;-65
2023/08/29 02:08:42;;;;;;;2.30;2.10;;;;;;;12.26;100.00;96080.00;5114638;28;20201;-65
2023/08/29 02:11:08;;;;;;;2.37;2.27;;;;;;;12.20;100.00;96078.88;5114828;28;20269;-65
2023/08/29 02:13:35;;;;;;;2.77;2.57;;;;;;;12.19;100.00;96074.53;5116191;28;20197;-64
2023/08/29 02:16:04;;;;;;;2.63;2.53;;;;;;;12.23;100.00;96075.03;5115351;28;20701;-63
2023/08/29 02:18:34;;;;;;;3.10;2.90;;;;;;;12.21;100.00;96077.88;5115418;28;20221;-63
2023/08/29 02:21:01;;;;;;;3.90;3.53;;;;;;;12.17;100.00;96075.72;5115945;28;20193;-64
2023/08/29 02:23:28;;;;;;;3.37;3.17;;;;;;;12.25;100.00;96073.91;5114722;28;20197;-63
2023/08/29 02:26:02;;;;;;;3.77;3.57;;;;;;;12.21;100.00;96077.03;5115316;28;20205;-65
2023/08/29 02:28:28;;;;;;;3.83;3.53;;;;;;;12.20;100.00;96075.38;5115032;28;20236;-62
2023/08/29 02:30:55;;;;;;;3.47;3.27;;;;;;;12.17;100.00;96075.72;5114469;28;20201;-64
2023/08/29 02:33:21;;;;;;;3.90;3.60;;;;;;;12.24;100.00;96077.53;5115391;28;20221;-64
2023/08/29 02:35:49;;;;;;;4.33;3.53;;;;;;;12.30;100.00;96076.03;5113928;28;20629;-62
2023/08/29 02:38:16;;;;;;;3.87;3.57;;;;;;;12.32;100.00;96074.06;5115091;28;20201;-63
2023/08/29 02:40:42;;;;;;;4.60;4.30;;;;;;;12.30;100.00;96070.72;5118802;28;20208;-65
2023/08/29 02:43:08;;;;;;;4.93;4.53;;;;;;;12.24;100.00;96066.09;5114347;28;20212;-64
2023/08/29 02:45:35;;;;;;;4.87;4.47;;;;;;;12.26;100.00;96077.34;5114076;28;20227;-65
2023/08/29 02:48:02;;;;;;;4.90;4.60;;;;;;;12.26;100.00;96069.41;5114303;28;20326;-63
2023/08/29 02:50:29;;;;;;;4.80;4.50;;;;;;;12.30;100.00;96073.38;5113194;28;21493;-64
2023/08/29 02:52:56;;;;;;;5.07;4.77;;;;;;;12.34;100.00;96069.41;5114151;28;20232;-63
2023/08/29 02:55:23;;;;;;;5.50;5.00;;;;;;;12.32;100.00;96068.75;5113843;28;20205;-63
2023/08/29 02:57:52;;;;;;;5.97;5.43;;;;;;;12.36;100.00;96064.78;5115076;28;20201;-63
2023/08/29 03:00:19;;;;;;;4.93;4.63;;;;;;;12.34;100.00;96056.97;5114104;28;20584;-64
2023/08/29 03:02:48;;;;;;;5.80;5.17;;;;;;;12.36;100.00;96065.56;5114640;28;20209;-64
2023/08/29 03:05:15;;;;;;;5.53;5.23;;;;;;;12.36;100.00;96062.13;5114506;28;20201;-64
2023/08/29 03:07:42;;;;;;;5.57;5.20;;;;;;;12.37;100.00;96067.25;5114505;28;20251;-65
2023/08/29 03:10:11;;;;;;;6.30;5.77;;;;;;;12.33;100.00;96057.97;5114081;28;20537;-63
2023/08/29 03:12:37;;;;;;;6.13;5.63;;;;;;;12.33;100.00;96054.47;5114185;28;20205;-65
2023/08/29 03:15:04;;;;;;;6.03;5.63;;;;;;;12.26;100.00;96053.50;5114415;28;20322;-64
2023/08/29 03:17:31;;;;;;;6.27;5.73;;;;;;;12.20;100.00;96056.81;5114508;28;20202;-64
2023/08/29 03:19:57;;;;;;;5.60;5.20;;;;;;;12.22;100.00;96054.84;5114302;28;20225;-63
2023/08/29 03:22:24;;;;;;;5.30;4.90;;;;;;;12.22;100.00;96052.19;5113810;28;20250;-64
2023/08/29 03:24:50;;;;;;;5.90;5.40;;;;;;;12.18;100.00;96040.28;5114039;28;20208;-64
2023/08/29 03:27:18;;;;;;;5.50;5.10;;;;;;;12.18;100.00;96041.09;5113221;28;20240;-65
2023/08/29 03:29:44;;;;;;;5.50;5.10;;;;;;;12.14;100.00;96034.47;5114122;28;20201;-63
2023/08/29 03:32:11;;;;;;;5.43;5.10;;;;;;;12.13;100.00;96038.13;5113530;28;20208;-63
2023/08/29 03:34:37;;;;;;;5.40;5.03;;;;;;;12.08;100.00;96034.31;5113580;28;20201;-65
2023/08/29 03:37:06;;;;;;;5.10;4.70;;;;;;;12.13;100.00;96030.16;5114052;28;20601;-63
2023/08/29 03:39:33;;;;;;;5.40;4.90;;;;;;;12.10;100.00;96034.97;5113406;28;20716;-64
2023/08/29 03:42:00;;;;;;;5.17;4.87;;;;;;;12.11;100.00;96032.16;5112952;28;20201;-64
2023/08/29 03:44:30;;;;;;;5.43;5.13;;;;;;;12.18;100.00;96029.66;5112950;28;20201;-63
2023/08/29 03:46:56;;;;;;;5.10;4.63;;;;;;;12.11;100.00;96039.28;5112617;28;20204;-63
2023/08/29 03:49:24;;;;;;;5.30;4.90;;;;;;;12.06;100.00;96037.13;5113233;28;20205;-63
2023/08/29 03:51:51;;;;;;;5.20;4.80;;;;;;;12.12;100.00;96030.31;5112434;28;20226;-65
2023/08/29 03:54:17;;;;;;;4.80;4.50;;;;;;;11.98;100.00;96030.00;5112687;28;20205;-66
2023/08/29 03:56:44;;;;;;;5.00;4.53;;;;;;;12.08;100.00;96035.13;5112224;28;20205;-63
2023/08/29 03:59:10;;;;;;;5.00;4.70;;;;;;;12.13;100.00;96038.13;5112456;28;20217;-65
2023/08/29 04:01:38;;;;;;;5.67;4.70;;;;;;;12.15;100.00;96043.25;5112640;28;20223;-63
2023/08/29 04:04:05;;;;;;;5.30;5.00;;;;;;;12.18;100.00;96041.09;5112944;28;20216;-63
2023/08/29 04:06:34;;;;;;;4.77;4.47;;;;;;;12.17;100.00;96043.91;5112730;28;20201;-65
2023/08/29 04:09:01;;;;;;;4.97;4.67;;;;;;;12.25;100.00;96046.56;5112202;28;20329;-64
2023/08/29 04:11:27;;;;;;;4.87;4.47;;;;;;;12.15;100.00;96045.91;5111904;28;20648;-64
2023/08/29 04:13:54;;;;;;;4.43;4.23;;;;;;;12.19;100.00;96049.84;5113107;28;20196;-63
2023/08/29 04:16:20;;;;;;;4.57;4.27;;;;;;;12.14;100.00;96046.91;5113172;28;20197;-64
2023/08/29 04:18:50;;;;;;;4.07;3.77;;;;;;;12.14;100.00;96044.25;5114371;28;20205;-64
2023/08/29 04:21:16;;;;;;;3.97;3.67;;;;;;;12.17;100.00;96051.84;5114292;28;20201;-64
2023/08/29 04:23:43;;;;;;;4.33;3.93;;;;;;;12.13;100.00;96055.84;5113934;28;20212;-64
2023/08/29 04:26:09;;;;;;;4.13;3.83;;;;;;;12.14;100.00;96054.84;5112052;28;20213;-64
2023/08/29 04:28:37;;;;;;;4.40;4.00;;;;;;;12.18;100.00;96066.78;5112910;28;20245;-64
2023/08/29 04:31:10;;;;;;;4.00;3.70;;;;;;;12.14;100.00;96060.16;5112151;28;20291;-62
2023/08/29 04:33:36;;;;;;;4.43;4.13;;;;;;;12.17;100.00;96057.16;5094923;28;20201;-63
2023/08/29 04:36:05;;;;;;;4.53;4.20;;;;;;;12.18;100.00;96058.81;5112544;28;20206;-63
2023/08/29 04:38:32;;;;;;;3.93;3.73;;;;;;;12.21;100.00;96066.44;5112538;28;20206;-64
2023/08/29 04:40:58;;;;;;;3.70;3.50;;;;;;;12.21;100.00;96069.94;5112630;28;20220;-66
2023/08/29 04:43:25;;;;;;;3.93;3.57;;;;;;;12.23;100.00;96065.28;5113024;28;20208;-64
2023/08/29 04:45:53;;;;;;;4.37;3.97;;;;;;;12.13;100.00;96061.97;5112602;28;20689;-64
2023/08/29 04:48:19;;;;;;;3.67;3.47;;;;;;;12.24;100.00;96069.59;5114806;28;20193;-64
2023/08/29 04:50:46;;;;;;;4.00;3.63;;;;;;;12.18;100.00;96078.22;5123683;28;20257;-65
2023/08/29 04:53:14;;;;;;;4.00;3.57;;;;;;;12.21;100.00;96071.75;5122820;28;20216;-64
2023/08/29 04:55:40;;;;;;;3.87;3.57;;;;;;;12.26;100.00;96070.22;5124584;28;20204;-65
2023/08/29 04:58:07;;;;;;;4.07;3.77;;;;;;;12.26;100.00;96074.69;5117352;28;20204;-64
2023/08/29 05:00:33;;;;;;;4.43;4.10;;;;;;;12.38;100.00;96076.84;5111776;28;20213;-65
2023/08/29 05:03:00;;;;;;;4.00;3.70;;;;;;;12.38;100.00;96076.03;5111948;28;20201;-64
2023/08/29 05:05:26;;;;;;;3.83;3.63;;;;;;;12.38;100.00;96081.34;5111422;28;20197;-65
2023/08/29 05:07:53;;;;;;;4.40;4.10;;;;;;;12.27;100.00;96081.66;5111328;28;20197;-66
2023/08/29 05:10:21;;;;;;;4.53;4.13;;;;;;;12.33;100.00;96081.00;5110803;28;20201;-64
2023/08/29 05:12:48;;;;;;;4.30;4.00;;;;;;;12.23;100.00;96083.00;5111802;28;20296;-64
2023/08/29 05:15:16;;;;;;;5.40;3.90;;;;;;;12.13;100.00;96075.22;5112241;28;20529;-66
2023/08/29 05:17:42;;;;;;;3.80;3.60;;;;;;;12.13;100.00;96074.38;5111991;28;20277;-64
2023/08/29 05:20:11;;;;;;;4.80;4.40;;;;;;;12.23;100.00;96080.34;5111639;28;20236;-64
2023/08/29 05:22:38;;;;;;;4.33;4.03;;;;;;;12.23;100.00;96083.81;5112230;28;20205;-63
2023/08/29 05:25:08;;;;;;;4.93;4.53;;;;;;;12.30;100.00;96076.84;5112196;28;20208;-63
2023/08/29 05:27:36;;;;;;;4.40;4.10;;;;;;;12.27;100.00;96074.56;5111560;28;20240;-64
2023/08/29 05:30:04;;;;;;;4.57;4.17;;;;;;;12.32;100.00;96074.88;5112095;28;20197;-64
2023/08/29 05:32:30;;;;;;;4.20;3.93;;;;;;;12.38;100.00;96076.03;5112063;28;20216;-63
2023/08/29 05:34:57;;;;;;;4.47;4.17;;;;;;;12.40;100.00;96080.16;5111926;28;20205;-64
2023/08/29 05:37:25;;;;;;;5.00;4.70;;;;;;;12.43;100.00;96071.06;5111199;28;20313;-63
2023/08/29 05:39:52;;;;;;;5.03;4.63;;;;;;;12.49;100.00;96075.69;5114434;28;20673;-64
2023/08/29 05:42:19;;;;;;;5.03;4.67;;;;;;;12.49;100.00;96075.69;5115937;28;20296;-63
2023/08/29 05:44:47;;;;;;;4.97;4.67;;;;;;;12.49;100.00;96078.34;5116148;28;20208;-63
2023/08/29 05:47:13;;;;;;;5.23;4.83;;;;;;;12.52;100.00;96078.00;5116187;28;20204;-64
2023/08/29 05:49:41;;;;;;;5.10;4.60;;;;;;;12.53;100.00;96076.19;5115396;28;20197;-62
2023/08/29 05:52:07;;;;;;;4.80;4.50;;;;;;;12.45;100.00;96082.31;5115494;28;20212;-63
2023/08/29 05:54:36;;;;;;;5.23;4.80;;;;;;;12.52;100.00;96085.94;5116054;28;20205;-66
2023/08/29 05:57:03;;;;;;;4.67;4.37;;;;;;;12.56;100.00;96092.56;5097768;28;20626;-63
2023/08/29 05:59:29;;;;;;;4.30;4.00;;;;;;;12.54;100.00;96088.44;5115008;28;20247;-64
2023/08/29 06:01:57;;;;;;;4.63;4.33;;;;;;;12.60;100.00;96096.56;5114831;28;20209;-65
2023/08/29 06:04:24;;;;;;;5.13;4.73;;;;;;;12.59;100.00;96097.53;5114859;28;20831;-63
2023/08/29 06:06:50;;;;;;;4.73;4.33;;;;;;;12.56;100.00;96097.88;5096014;28;20193;-65
2023/08/29 06:09:18;;;;;;;4.60;4.30;;;;;;;12.61;100.00;96095.53;5114271;28;21442;-64
2023/08/29 06:11:44;;;;;;;4.43;4.13;;;;;;;12.64;100.00;96105.00;5114432;28;20660;-64
2023/08/29 06:14:11;;;;;;;4.90;4.50;;;;;;;12.68;100.00;96098.38;5115534;28;20208;-65
2023/08/29 06:16:40;;;;;;;5.10;4.70;;;;;;;12.70;100.00;96101.66;5115849;28;21272;-63
2023/08/29 06:19:08;;;;;;;4.97;4.67;;;;;;;12.75;100.00;96099.34;5115939;28;20247;-64
2023/08/29 06:21:34;;;;;;;4.60;4.30;;;;;;;12.73;100.00;96104.81;5114850;28;20212;-65
2023/08/29 06:24:00;;;;;;;4.77;4.20;;;;;;;12.73;100.00;96104.81;5115282;28;20209;-64
2023/08/29 06:26:28;;;;;;;4.70;4.40;;;;;;;12.77;100.00;96107.94;5115280;28;20204;-65
2023/08/29 06:28:54;;;;;;;4.50;4.20;;;;;;;12.84;100.00;96112.41;5114394;28;20795;-65
2023/08/29 06:31:23;;;;;;;4.80;4.40;;;;;;;12.88;100.00;96113.72;5114861;28;20869;-64
2023/08/29 06:33:50;;;;;;;5.57;4.33;;;;;;;12.91;100.00;96117.88;5114796;28;20229;-63
2023/08/29 06:36:19;;;;;;;4.93;4.53;;;;;;;12.92;100.00;96115.06;5114489;28;20534;-65
2023/08/29 06:38:45;;;;;;;5.17;4.87;;;;;;;12.95;100.00;96112.06;5114516;28;20197;-63
2023/08/29 06:41:12;;;;;;;4.63;4.23;;;;;;;13.02;100.00;96124.63;5114976;28;20239;-64
2023/08/29 06:43:38;;;;;;;5.40;5.00;;;;;;;13.05;100.00;96118.97;5114082;28;20546;-64
2023/08/29 06:46:05;;;;;;;4.97;4.60;;;;;;;13.05;100.00;96118.97;5114379;28;20209;-65
2023/08/29 06:48:31;;;;;;;5.03;4.73;;;;;;;13.10;100.00;96122.00;5113941;28;20259;-65
2023/08/29 06:50:59;;;;;;;4.83;4.43;;;;;;;13.12;100.00;96125.28;5113310;28;20990;-63
2023/08/29 06:53:27;;;;;;;5.20;4.80;;;;;;;13.16;100.00;96129.25;5113640;28;21324;-63
2023/08/29 06:55:53;;;;;;;5.03;4.67;;;;;;;13.16;100.00;96131.91;5113757;28;20278;-65
2023/08/29 06:58:20;;;;;;;5.20;4.80;;;;;;;13.04;100.00;96138.59;5113966;28;20205;-63
2023/08/29 07:00:46;;;;;;;4.80;4.50;;;;;;;13.07;100.00;96132.94;5113881;28;20235;-65
2023/08/29 07:03:13;;;;;;;4.97;4.67;;;;;;;13.10;100.00;96132.63;5113876;28;20197;-63
2023/08/29 07:05:40;;;;;;;5.20;4.80;;;;;;;13.11;100.00;96134.28;5113556;28;20201;-63
2023/08/29 07:08:08;;;;;;;5.00;4.60;;;;;;;13.14;100.00;96136.59;5113738;28;20638;-63
2023/08/29 07:10:36;;;;;;;5.00;4.70;;;;;;;13.12;100.00;96142.06;5113352;28;20189;-64
2023/08/29 07:13:03;;;;;;;4.60;4.30;;;;;;;13.10;100.00;96136.09;5113761;28;20209;-66
2023/08/29 07:15:30;;;;;;;5.13;4.73;;;;;;;13.11;100.00;96139.59;5113859;28;20280;-64
2023/08/29 07:17:57;;;;;;;4.90;4.50;;;;;;;13.16;100.00;96147.84;5113106;28;20201;-65
2023/08/29 07:20:24;;;;;;;4.90;4.43;;;;;;;13.11;100.00;96136.94;5113136;28;20236;-64
2023/08/29 07:22:50;;;;;;;5.73;5.33;;;;;;;13.10;100.00;96143.22;5113214;28;20248;-65
2023/08/29 07:25:19;;;;;;;5.50;5.10;;;;;;;13.16;100.00;96145.19;5113367;28;20205;-64
2023/08/29 07:27:47;;;;;;;4.80;4.50;;;;;;;13.17;100.00;96149.50;5113490;28;20252;-64
2023/08/29 07:30:15;;;;;;;5.70;5.30;;;;;;;13.13;100.00;96142.88;5113861;28;20201;-65
2023/08/29 07:32:42;;;;;;;5.80;5.30;;;;;;;13.17;100.00;96160.13;5113694;28;20255;-64
2023/08/29 07:35:09;;;;;;;5.13;4.80;;;;;;;13.21;100.00;96153.50;5113464;28;20201;-63
2023/08/29 07:37:35;;;;;;;5.30;4.90;;;;;;;13.19;100.00;96163.44;5113485;28;20209;-64
2023/08/29 07:40:03;;;;;;;4.83;4.53;;;;;;;13.18;100.00;96169.75;5114100;28;20240;-65
2023/08/29 07:42:31;;;;;;;5.03;4.53;;;;;;;13.20;100.00;96165.09;5114163;28;20201;-64
2023/08/29 07:45:01;;;;;;;5.43;4.97;;;;;;;13.27;100.00;96166.06;5112857;28;20518;-62
2023/08/29 07:47:29;;;;;;;5.60;5.10;;;;;;;13.27;100.00;96166.91;5113310;28;20215;-62
2023/08/29 07:49:55;;;;;;;5.00;4.70;;;;;;;13.29;100.00;96164.06;5112349;28;20632;-65
2023/08/29 07:52:22;;;;;;;5.20;4.80;;;;;;;13.29;100.00;96180.00;5113389;28;20205;-64
2023/08/29 07:54:48;;;;;;;4.70;4.40;;;;;;;13.28;100.00;96179.19;5113098;28;20201;-63
2023/08/29 07:57:15;;;;;;;4.60;4.30;;;;;;;13.30;100.00;96179.00;5113201;28;20205;-63
2023/08/29 07:59:41;;;;;;;4.57;4.27;;;;;;;13.30;100.00;96177.19;5112671;28;20201;-63
2023/08/29 08:02:09;;;;;;;4.90;4.60;;;;;;;13.39;100.00;96181.44;5111738;28;20221;-65
2023/08/29 08:04:36;;;;;;;5.03;4.73;;;;;;;13.41;100.00;96186.59;5112065;28;20205;-65
2023/08/29 08:07:02;;;;;;;4.93;4.53;;;;;;;13.39;100.00;96186.75;5112955;28;20546;-64
2023/08/29 08:09:29;;;;;;;4.87;4.47;;;;;;;13.34;100.00;96177.66;5112331;28;20197;-63
2023/08/29 08:11:56;;;;;;;4.43;4.13;;;;;;;13.37;100.00;96187.94;5112876;28;20277;-63
2023/08/29 08:14:22;;;;;;;4.40;4.13;;;;;;;13.44;100.00;96183.59;5113080;28;20234;-64
2023/08/29 08:16:49;;;;;;;4.70;4.40;;;;;;;13.43;100.00;96176.63;5113342;28;20193;-65
2023/08/29 08:19:17;;;;;;;3.93;3.73;;;;;;;13.45;100.00;96179.94;5112915;28;20197;-65
2023/08/29 08:21:43;;;;;;;4.40;4.10;;;;;;;13.49;100.00;96175.13;5112469;28;20216;-65
2023/08/29 08:24:11;;;;;;;4.40;4.00;;;;;;;13.51;100.00;96179.25;5112940;28;20208;-64
2023/08/29 08:26:39;;;;;;;4.80;4.50;;;;;;;13.57;100.00;96173.25;5113104;28;20205;-66
2023/08/29 08:29:07;;;;;;;4.07;3.87;;;;;;;13.65;100.00;96175.88;5112653;28;20190;-67
2023/08/29 08:31:33;;;;;;;4.53;4.23;;;;;;;13.73;100.00;96175.84;5112581;28;20204;-63
2023/08/29 08:34:00;;;;;;;4.70;4.30;;;;;;;13.78;100.00;96173.47;5111778;28;20670;-64
2023/08/29 08:36:30;;;;;;;4.40;4.10;;;;;;;13.79;100.00;96177.78;5112106;28;20212;-65
2023/08/29 08:38:57;;;;;;;4.83;4.30;;;;;;;13.84;100.00;96170.13;5111954;28;20580;-64
2023/08/29 08:41:25;;;;;;;4.67;4.37;;;;;;;13.85;100.00;96161.13;5113407;28;20235;-64
2023/08/29 08:43:51;;;;;;;4.40;4.10;;;;;;;13.89;100.00;96157.13;5111528;28;20248;-64
2023/08/29 08:46:17;;;;;;;4.33;4.03;;;;;;;13.89;100.00;96165.13;5111517;28;20655;-66
2023/08/29 08:48:44;;;;;;;4.03;3.80;;;;;;;13.88;100.00;96166.13;5112044;28;20201;-64
2023/08/29 08:51:11;;;;;;;4.10;3.90;;;;;;;13.88;100.00;96171.44;5111663;28;20605;-64
2023/08/29 08:53:39;;;;;;;4.63;4.33;;;;;;;13.92;100.00;96178.03;5111784;28;20212;-63
2023/08/29 08:56:05;;;;;;;4.37;4.07;;;;;;;13.94;100.00;96188.53;5111369;28;20197;-64
2023/08/29 08:58:33;;;;;;;3.40;3.20;;;;;;;13.85;100.00;96186.91;5093307;28;20553;-63
2023/08/29 09:01:00;;;;;;;3.50;3.30;;;;;;;13.87;100.00;96182.25;5111599;28;20564;-64
2023/08/29 09:03:26;;;;;;;3.77;3.47;;;;;;;13.86;100.00;96183.25;5111967;28;20209;-64
2023/08/29 09:05:53;;;;;;;4.13;3.63;;;;;;;13.95;100.00;96188.34;5111674;28;20541;-64
2023/08/29 09:08:20;;;;;;;4.03;3.73;;;;;;;14.01;100.00;96188.63;5112271;28;20201;-64
2023/08/29 09:10:48;;;;;;;4.07;3.80;;;;;;;14.04;100.00;96175.81;5112236;28;20201;-64
2023/08/29 09:13:17;;;;;;;3.80;3.50;;;;;;;14.04;100.00;96181.13;5114635;28;20213;-64
2023/08/29 09:15:44;;;;;;;3.63;3.40;;;;;;;14.08;100.00;96178.97;5117864;28;20226;-65
2023/08/29 09:18:13;;;;;;;3.47;3.27;;;;;;;13.99;100.00;96180.03;5120809;28;20222;-65
2023/08/29 09:20:46;;;;;;;3.73;3.53;;;;;;;14.06;100.00;96186.28;5122345;28;20266;-65
2023/08/29 09:23:22;;;;;;;3.87;3.67;;;;;;;14.11;100.00;96181.25;5118251;28;20249;-63
2023/08/29 09:25:55;;;;;;;3.93;3.70;;;;;;;14.11;100.00;96184.75;5112270;28;20193;-65
2023/08/29 09:28:22;;;;;;;3.80;3.60;;;;;;;14.18;100.00;96183.03;5112430;28;20217;-65
2023/08/29 09:30:49;;;;;;;3.63;3.33;;;;;;;14.25;100.00;96178.69;5112006;28;20201;-63
2023/08/29 09:33:22;;;;;;;4.00;3.60;;;;;;;14.16;100.00;96174.44;5112900;28;20198;-64
2023/08/29 09:35:49;;;;;;;3.30;3.20;;;;;;;14.22;100.00;96179.03;5112092;28;20193;-63
2023/08/29 09:38:17;;;;;;;4.80;3.73;;;;;;;14.22;100.00;96180.88;5112874;28;21470;-65
2023/08/29 09:40:47;;;;;;;3.57;3.37;;;;;;;14.27;100.00;96186.50;5112383;28;20220;-65
2023/08/29 09:43:16;;;;;;;3.70;3.50;;;;;;;14.26;100.00;96190.97;5112876;28;20201;-65
2023/08/29 09:45:43;;;;;;;3.50;3.30;;;;;;;14.31;100.00;96188.59;5111932;28;20220;-66
2023/08/29 09:48:10;;;;;;;4.03;3.73;;;;;;;14.37;100.00;96192.44;5112768;28;20213;-65
2023/08/29 09:50:38;;;;;;;3.70;3.40;;;;;;;14.39;100.00;96188.56;5112292;28;20215;-65
2023/08/29 09:53:05;;;;;;;3.37;3.17;;;;;;;14.38;100.00;96194.09;5113975;28;20209;-65
2023/08/29 09:55:34;;;;;;;3.23;3.13;;;;;;;14.50;100.00;96195.31;5113800;28;20197;-62
2023/08/29 09:58:02;;;;;;;4.80;4.45;;;;;;;14.55;100.00;96195.63;5114964;28;20236;-63
2023/08/29 10:00:30;;;;;;;4.35;4.05;;;;;;;14.56;100.00;96197.25;5113341;28;20193;-63
2023/08/29 10:02:57;;;;;;;3.97;3.63;;;;;;;14.51;100.00;96188.16;5115211;28;20213;-64
2023/08/29 10:05:26;;;;;;;3.70;3.40;;;;;;;14.55;100.00;96198.28;5114345;28;20205;-68
2023/08/29 10:07:56;;;;;;;2.77;2.67;;;;;;;14.53;100.00;96192.28;5114454;28;20181;-64
2023/08/29 10:10:23;;;;;;;3.17;2.67;;;;;;;14.57;100.00;96193.59;5112853;28;20197;-63
2023/08/29 10:12:51;;;;;;;3.05;2.85;;;;;;;14.50;100.00;96195.31;5111412;28;20204;-65
2023/08/29 10:15:18;;;;;;;2.93;2.73;;;;;;;14.52;100.00;96197.81;5111226;28;20636;-66
2023/08/29 10:17:47;;;;;;;3.23;2.93;;;;;;;14.54;100.00;96191.31;5110835;28;20209;-64
2023/08/29 10:20:16;;;;;;;3.15;2.90;;;;;;;14.51;100.00;96189.00;5110559;28;20205;-65
2023/08/29 10:22:45;;;;;;;3.00;2.90;;;;;;;14.51;100.00;96189.00;5110859;28;20550;-63
2023/08/29 10:25:13;;;;;;;3.20;3.00;;;;;;;14.55;100.00;96184.97;5112585;28;20205;-63
2023/08/29 10:27:41;;;;;;;3.23;3.03;;;;;;;14.59;100.00;96188.13;5116628;28;20664;-63
2023/08/29 10:30:09;;;;;;;3.27;3.07;;;;;;;14.64;100.00;96186.56;5115570;28;20212;-64
2023/08/29 10:32:37;;;;;;;2.87;2.77;;;;;;;14.66;100.00;96187.22;5115214;28;20217;-64
2023/08/29 10:35:07;;;;;;;3.22;2.92;;;;;;;14.67;100.00;96194.19;5114761;28;20224;-64
2023/08/29 10:37:34;;;;;;;3.40;3.20;;;;;;;14.60;100.00;96187.91;5114256;28;20605;-63
2023/08/29 10:40:11;;;;;;;2.53;2.43;;;;;;;14.66;100.00;96178.41;5115211;28;20201;-63
2023/08/29 10:42:54;;;;;;;2.70;2.60;;;;;;;14.68;100.00;96179.88;5114590;28;20235;-64
2023/08/29 10:45:22;;;;;;;3.30;3.00;;;;;;;14.68;100.00;96185.19;5114925;28;20664;-63
2023/08/29 10:47:48;;;;;;;3.23;2.70;;;;;;;14.68;100.00;96179.88;5114591;28;20205;-62
2023/08/29 10:50:22;;;;;;;2.80;2.60;;;;;;;14.61;100.00;96178.94;5113858;28;20205;-66
2023/08/29 10:52:53;;;;;;;2.53;2.42;;;;;;;14.55;100.00;96179.66;5114493;28;20205;-65
2023/08/29 10:55:22;;;;;;;2.72;2.53;;;;;;;14.56;100.00;96175.16;5114617;28;20206;-64
2023/08/29 10:57:49;;;;;;;2.70;2.30;;;;;;;14.51;100.00;96178.34;5096771;28;20627;-65
2023/08/29 11:00:18;;;;;;;3.33;2.20;;;;;;;14.51;100.00;96183.69;5113889;28;20201;-64
2023/08/29 11:02:47;;;;;;;2.47;2.30;;;;;;;14.52;100.00;96174.69;5113480;28;20229;-64
2023/08/29 11:05:15;;;;;;;2.90;2.70;;;;;;;14.48;100.00;96184.03;5113543;28;20197;-64
2023/08/29 11:07:43;;;;;;;2.80;2.60;;;;;;;14.45;100.00;96184.41;5113835;28;20206;-63
2023/08/29 11:10:21;;;;;;;2.20;2.00;;;;;;;14.38;100.00;96181.59;5113793;28;20201;-66
2023/08/29 11:13:08;;;;;;;2.33;2.23;;;;;;;14.34;100.00;96182.16;5113549;28;20197;-66
2023/08/29 11:16:09;;;;;;;2.13;2.03;;;;;;;14.35;100.00;96183.78;5113649;28;20216;-65
2023/08/29 11:18:35;;;;;;;1.75;1.65;;;;;;;14.34;100.00;96187.47;5114029;28;20198;-65
2023/08/29 11:21:06;;;;;;;1.90;1.80;;;;;;;14.31;100.00;96183.28;5113957;28;20201;-64
2023/08/29 11:23:38;;;;;;;1.83;1.73;;;;;;;14.31;100.00;96193.13;5114300;28;20209;-64
2023/08/29 11:26:05;;;;;;;1.60;1.50;;;;;;;14.21;100.00;96195.16;5117891;28;20222;-64